createdAt,value
2024-01-10T00:02:40.194Z,96.56
2024-01-10T00:05:47.897Z,96.60
2024-01-10T00:08:52.697Z,97.24
2024-01-10T00:11:57.907Z,95.57
2024-01-10T00:15:01.892Z,95.92
2024-01-10T00:18:06.886Z,98.18
2024-01-10T00:21:12.760Z,96.78
2024-01-10T00:24:16.873Z,97.78
2024-01-10T00:27:40.554Z,96.05
2024-01-10T00:30:46.723Z,95.82
2024-01-10T00:33:53.324Z,97.08
2024-01-10T00:37:01.099Z,97.25
2024-01-10T00:40:06.259Z,97.22
2024-01-10T00:43:10.314Z,97.59
2024-01-10T00:46:14.233Z,96.33
2024-01-10T00:49:22.257Z,96.63
2024-01-10T00:52:29.482Z,95.35
2024-01-10T00:55:39.063Z,95.43
2024-01-10T00:58:43.332Z,94.67
2024-01-10T01:01:51.907Z,95.70
2024-01-10T01:04:56.030Z,94.98
2024-01-10T01:08:01.542Z,96.95
2024-01-10T01:11:11.397Z,96.22
2024-01-10T01:14:18.367Z,98.06
2024-01-10T01:17:22.347Z,98.90
2024-01-10T01:20:38.703Z,99.86
2024-01-10T01:23:44.137Z,100.00
2024-01-10T01:26:48.049Z,100.00
2024-01-10T01:29:52.062Z,100.00
2024-01-10T01:32:56.201Z,100.00
2024-01-10T01:36:00.566Z,100.00
2024-01-10T01:39:06.017Z,100.00
2024-01-10T01:42:10.365Z,98.78
2024-01-10T01:45:14.911Z,97.45
2024-01-10T01:48:19.208Z,98.65
2024-01-10T01:51:25.600Z,96.65
2024-01-10T01:54:31.721Z,96.10
2024-01-10T01:57:36.105Z,96.39
2024-01-10T02:00:41.683Z,95.84
2024-01-10T02:03:46.175Z,96.25
2024-01-10T02:06:50.261Z,96.66
2024-01-10T02:09:55.745Z,93.90
2024-01-10T02:13:01.058Z,92.72
2024-01-10T02:16:06.543Z,92.22
2024-01-10T02:19:30.437Z,91.58
2024-01-10T02:22:34.599Z,88.22
2024-01-10T02:25:40.990Z,90.00
2024-01-10T02:28:47.249Z,87.58
2024-01-10T02:31:54.296Z,87.64
2024-01-10T02:35:01.248Z,84.75
2024-01-10T02:38:06.610Z,86.55
2024-01-10T02:41:12.195Z,88.50
2024-01-10T02:44:19.745Z,87.56
2024-01-10T02:47:26.515Z,86.13
2024-01-10T02:50:30.950Z,87.90
2024-01-10T02:53:34.880Z,86.74
2024-01-10T02:56:43.973Z,85.74
2024-01-10T02:59:50.501Z,85.09
2024-01-10T03:02:54.383Z,84.40
2024-01-10T03:05:58.338Z,83.71
2024-01-10T03:09:02.235Z,83.50
2024-01-10T03:12:10.849Z,84.30
2024-01-10T03:15:16.159Z,84.93
2024-01-10T03:18:20.161Z,84.55
2024-01-10T03:21:26.164Z,84.04
2024-01-10T03:24:30.214Z,85.29
2024-01-10T03:27:41.573Z,84.41
2024-01-10T03:30:52.569Z,83.26
2024-01-10T03:33:56.810Z,83.41
2024-01-10T03:37:03.634Z,84.15
2024-01-10T03:40:08.760Z,84.01
2024-01-10T03:43:20.371Z,84.01
2024-01-10T03:46:25.438Z,83.81
2024-01-10T03:49:29.478Z,83.08
2024-01-10T03:52:33.583Z,84.07
2024-01-10T03:55:40.678Z,84.19
2024-01-10T03:58:50.036Z,84.04
2024-01-10T04:01:55.710Z,83.21
2024-01-10T04:05:10.218Z,84.31
2024-01-10T04:08:19.285Z,83.41
2024-01-10T04:11:25.356Z,83.84
2024-01-10T04:14:30.883Z,82.97
2024-01-10T04:17:35.131Z,83.28
2024-01-10T04:20:39.325Z,83.19
2024-01-10T04:23:46.149Z,82.18
2024-01-10T04:26:59.401Z,82.31
2024-01-10T04:30:14.205Z,82.43
2024-01-10T04:33:18.260Z,82.67
2024-01-10T04:36:22.209Z,82.07
2024-01-10T04:39:26.153Z,81.96
2024-01-10T04:42:30.064Z,82.19
2024-01-10T04:45:35.557Z,81.53
2024-01-10T04:48:39.631Z,81.86
2024-01-10T04:51:43.997Z,81.91
2024-01-10T04:54:47.914Z,82.52
2024-01-10T04:57:51.817Z,82.08
2024-01-10T05:00:57.500Z,81.87
2024-01-10T05:04:01.497Z,81.84
2024-01-10T05:07:05.542Z,81.53
2024-01-10T05:10:10.124Z,80.66
2024-01-10T05:13:14.596Z,82.15
2024-01-10T05:16:19.980Z,80.79
2024-01-10T05:19:23.949Z,81.29
2024-01-10T05:22:27.982Z,80.99
2024-01-10T05:25:31.990Z,80.67
2024-01-10T05:28:35.954Z,81.24
2024-01-10T05:31:41.441Z,80.45
2024-01-10T05:34:45.463Z,81.16
2024-01-10T05:37:49.430Z,80.25
2024-01-10T05:40:53.817Z,80.14
2024-01-10T05:43:57.837Z,79.55
2024-01-10T05:47:04.268Z,80.00
2024-01-10T05:50:09.498Z,79.46
2024-01-10T05:53:15.228Z,79.10
2024-01-10T05:56:19.249Z,79.05
2024-01-10T06:02:28.897Z,78.88
2024-01-10T06:05:33.679Z,80.46
2024-01-10T06:08:37.975Z,78.66
2024-01-10T06:11:44.731Z,79.82
2024-01-10T06:14:48.676Z,79.93
2024-01-10T06:17:54.222Z,80.45
2024-01-10T06:20:58.204Z,78.81
2024-01-10T06:24:02.125Z,78.57
2024-01-10T06:27:07.180Z,78.52
2024-01-10T06:30:12.236Z,79.21
2024-01-10T06:33:17.885Z,78.54
2024-01-10T06:36:21.905Z,77.74
2024-01-10T06:39:26.137Z,76.55
2024-01-10T06:42:30.043Z,77.11
2024-01-10T06:45:33.996Z,77.14
2024-01-10T06:48:42.511Z,76.60
2024-01-10T06:51:47.030Z,78.09
2024-01-10T06:54:51.020Z,77.93
2024-01-10T06:57:55.511Z,76.79
2024-01-10T07:01:01.579Z,76.12
2024-01-10T07:04:07.114Z,76.25
2024-01-10T07:07:12.818Z,76.49
2024-01-10T07:10:16.853Z,76.79
2024-01-10T07:13:21.370Z,76.74
2024-01-10T07:16:26.831Z,76.49
2024-01-10T07:19:32.521Z,76.17
2024-01-10T07:22:36.602Z,75.75
2024-01-10T07:25:40.608Z,76.24
2024-01-10T07:28:44.574Z,76.61
2024-01-10T07:31:50.310Z,75.88
2024-01-10T07:34:56.958Z,75.60
2024-01-10T07:38:00.893Z,75.95
2024-01-10T07:41:04.927Z,75.78
2024-01-10T07:44:10.912Z,75.67
2024-01-10T07:47:15.024Z,75.05
2024-01-10T07:50:21.094Z,75.60
2024-01-10T07:53:28.139Z,74.85
2024-01-10T07:56:32.785Z,74.72
2024-01-10T07:59:36.920Z,74.73
2024-01-10T08:02:42.263Z,74.81
2024-01-10T08:05:47.909Z,74.54
2024-01-10T08:08:51.979Z,74.03
2024-01-10T08:11:55.878Z,73.79
2024-01-10T08:15:00.480Z,74.62
2024-01-10T08:18:05.462Z,73.90
2024-01-10T08:21:13.690Z,73.65
2024-01-10T08:24:17.782Z,73.92
2024-01-10T08:27:22.128Z,74.12
2024-01-10T08:30:26.549Z,73.70
2024-01-10T08:33:31.837Z,75.04
2024-01-10T08:36:37.551Z,74.67
2024-01-10T08:39:44.161Z,73.56
2024-01-10T08:42:48.087Z,73.83
2024-01-10T08:45:52.002Z,71.81
2024-01-10T08:48:55.975Z,72.25
2024-01-10T08:52:01.412Z,72.06
2024-01-10T08:55:10.410Z,71.61
2024-01-10T08:58:16.619Z,71.48
2024-01-10T09:01:20.465Z,71.97
2024-01-10T09:04:24.375Z,72.48
2024-01-10T09:07:29.689Z,71.32
2024-01-10T09:10:33.667Z,71.33
2024-01-10T09:13:39.525Z,71.31
2024-01-10T09:16:43.709Z,72.26
2024-01-10T09:19:47.994Z,72.14
2024-01-10T09:22:53.549Z,72.17
2024-01-10T09:25:57.750Z,70.34
2024-01-10T09:29:01.781Z,70.41
2024-01-10T09:32:06.536Z,69.69
2024-01-10T09:35:11.273Z,70.83
2024-01-10T09:38:18.578Z,71.88
2024-01-10T09:41:22.861Z,71.11
2024-01-10T09:44:27.372Z,69.96
2024-01-10T09:47:32.541Z,69.80
2024-01-10T09:50:36.604Z,69.08
2024-01-10T09:53:46.343Z,70.88
2024-01-10T09:56:50.407Z,69.55
2024-01-10T09:59:55.773Z,69.99
2024-01-10T10:03:01.830Z,70.21
2024-01-10T10:06:06.440Z,70.65
2024-01-10T10:09:14.533Z,69.61
2024-01-10T10:12:18.587Z,68.48
2024-01-10T10:15:27.383Z,68.40
2024-01-10T10:18:32.897Z,69.48
2024-01-10T10:21:37.183Z,70.34
2024-01-10T10:24:45.696Z,70.10
2024-01-10T10:27:51.338Z,68.97
2024-01-10T10:30:55.662Z,68.80
2024-01-10T10:34:03.678Z,69.72
2024-01-10T10:37:07.734Z,68.85
2024-01-10T10:40:15.083Z,68.41
2024-01-10T10:43:21.217Z,71.02
2024-01-10T10:46:29.830Z,70.61
2024-01-10T10:49:36.046Z,70.34
2024-01-10T10:52:42.511Z,71.20
2024-01-10T10:55:50.533Z,70.45
2024-01-10T10:58:56.292Z,70.08
2024-01-10T11:02:00.402Z,70.15
2024-01-10T11:05:07.859Z,71.12
2024-01-10T11:08:15.570Z,70.74
2024-01-10T11:11:28.059Z,71.41
2024-01-10T11:14:42.732Z,70.72
2024-01-10T11:18:24.098Z,70.71
2024-01-10T11:21:40.136Z,71.19
2024-01-10T11:24:45.235Z,70.53
2024-01-10T11:28:03.333Z,72.10
2024-01-10T11:31:09.873Z,70.94
2024-01-10T11:34:14.789Z,69.71
2024-01-10T11:37:18.989Z,70.63
2024-01-10T11:40:49.993Z,71.17
2024-01-10T11:44:32.373Z,70.99
2024-01-10T11:47:36.799Z,68.84
2024-01-10T11:50:40.976Z,68.07
2024-01-10T11:53:47.880Z,69.83
2024-01-10T11:56:51.863Z,70.97
2024-01-10T12:00:01.372Z,70.77
2024-01-10T12:03:06.017Z,72.02
2024-01-10T12:06:10.745Z,71.32
2024-01-10T12:09:15.547Z,70.85
2024-01-10T12:12:19.980Z,72.04
2024-01-10T12:15:25.535Z,72.69
2024-01-10T12:18:30.134Z,72.37
2024-01-10T12:21:34.218Z,71.76
2024-01-10T12:24:47.783Z,71.92
2024-01-10T12:27:51.963Z,72.08
2024-01-10T12:30:57.582Z,72.41
2024-01-10T12:34:04.509Z,72.51
2024-01-10T12:37:09.969Z,73.19
2024-01-10T12:40:15.219Z,73.05
2024-01-10T12:43:19.185Z,74.53
2024-01-10T12:46:26.915Z,73.60
2024-01-10T12:49:30.456Z,73.63
2024-01-10T12:52:35.805Z,73.09
2024-01-10T12:55:39.957Z,73.16
2024-01-10T12:58:44.390Z,74.36
2024-01-10T13:01:49.918Z,75.22
2024-01-10T13:04:54.466Z,74.29
2024-01-10T13:08:00.627Z,73.78
2024-01-10T13:11:09.368Z,73.93
2024-01-10T13:14:13.520Z,73.64
2024-01-10T13:17:18.890Z,73.63
2024-01-10T13:20:22.819Z,73.90
2024-01-10T13:23:26.756Z,73.50
2024-01-10T13:26:30.816Z,73.57
2024-01-10T13:29:36.017Z,73.75
2024-01-10T13:32:42.447Z,73.24
2024-01-10T13:35:50.888Z,73.01
2024-01-10T13:38:55.547Z,72.72
2024-01-10T13:41:59.952Z,72.37
2024-01-10T13:45:04.161Z,73.33
2024-01-10T13:48:11.661Z,72.86
2024-01-10T13:51:16.815Z,72.09
2024-01-10T13:54:21.270Z,72.48
2024-01-10T13:57:26.236Z,72.17
2024-01-10T14:00:31.615Z,73.02
2024-01-10T14:03:37.795Z,73.60
2024-01-10T14:06:43.545Z,72.59
2024-01-10T14:09:48.492Z,72.37
2024-01-10T14:12:53.126Z,72.93
2024-01-10T14:15:57.046Z,73.13
2024-01-10T14:19:03.191Z,72.08
2024-01-10T14:22:14.092Z,72.32
2024-01-10T14:25:25.734Z,72.28
2024-01-10T14:28:29.658Z,71.27
2024-01-10T14:31:50.286Z,71.32
2024-01-10T14:35:08.684Z,71.62
2024-01-10T14:38:15.852Z,71.56
2024-01-10T14:41:31.019Z,71.52
2024-01-10T14:44:36.261Z,71.79
2024-01-10T14:47:43.506Z,72.99
2024-01-10T14:50:49.107Z,73.58
2024-01-10T14:53:58.803Z,73.55
2024-01-10T14:57:02.712Z,73.70
2024-01-10T15:00:13.722Z,74.19
2024-01-10T15:03:26.326Z,73.61
2024-01-10T15:06:38.163Z,72.86
2024-01-10T15:09:42.151Z,73.28
2024-01-10T15:12:46.169Z,74.16
2024-01-10T15:15:50.289Z,73.65
2024-01-10T15:18:54.217Z,74.08
2024-01-10T15:22:05.154Z,74.75
2024-01-10T15:25:15.235Z,73.95
2024-01-10T15:28:19.287Z,73.23
2024-01-10T15:31:24.845Z,72.93
2024-01-10T15:34:29.874Z,74.13
2024-01-10T15:37:40.394Z,73.52
2024-01-10T15:40:44.929Z,73.02
2024-01-10T15:43:49.365Z,74.95
2024-01-10T15:47:09.271Z,74.27
2024-01-10T15:50:13.686Z,75.16
2024-01-10T15:53:23.693Z,72.96
2024-01-10T15:56:35.346Z,74.03
2024-01-10T15:59:43.167Z,72.63
2024-01-10T16:02:47.145Z,74.59
2024-01-10T16:05:57.728Z,72.94
2024-01-10T16:09:30.286Z,72.76
2024-01-10T16:12:46.859Z,74.04
2024-01-10T16:16:16.200Z,73.72
2024-01-10T16:19:37.714Z,73.11
2024-01-10T16:22:47.952Z,72.43
2024-01-10T16:25:56.655Z,73.36
2024-01-10T16:29:06.489Z,74.61
2024-01-10T16:32:16.819Z,75.27
2024-01-10T16:35:23.859Z,75.29
2024-01-10T16:38:30.534Z,75.16
2024-01-10T16:41:36.083Z,74.80
2024-01-10T16:44:42.989Z,74.20
2024-01-10T16:47:52.308Z,73.18
2024-01-10T16:51:00.099Z,74.48
2024-01-10T16:54:03.871Z,73.97
2024-01-10T16:57:12.238Z,74.09
2024-01-10T17:00:19.152Z,74.19
2024-01-10T17:03:23.849Z,73.38
2024-01-10T17:06:31.194Z,72.49
2024-01-10T17:09:38.902Z,73.65
2024-01-10T17:12:45.909Z,74.39
2024-01-10T17:15:51.110Z,73.23
2024-01-10T17:18:59.996Z,74.63
2024-01-10T17:22:04.244Z,74.89
2024-01-10T17:25:09.789Z,75.46
2024-01-10T17:28:16.396Z,75.38
2024-01-10T17:31:20.864Z,76.53
2024-01-10T17:34:25.180Z,76.29
2024-01-10T17:37:31.996Z,76.46
2024-01-10T17:40:36.311Z,76.84
2024-01-10T17:43:42.164Z,77.14
2024-01-10T17:46:46.357Z,77.09
2024-01-10T17:49:50.946Z,79.20
2024-01-10T17:52:55.653Z,78.90
2024-01-10T17:55:59.757Z,79.77
2024-01-10T17:59:05.425Z,79.02
2024-01-10T18:02:09.400Z,78.91
2024-01-10T18:05:13.842Z,78.64
2024-01-10T18:08:18.910Z,79.12
2024-01-10T18:11:23.044Z,79.48
2024-01-10T18:14:29.399Z,80.00
2024-01-10T18:17:33.473Z,79.56
2024-01-10T18:20:37.630Z,79.19
2024-01-10T18:23:45.723Z,78.60
2024-01-10T18:26:49.806Z,77.67
2024-01-10T18:29:55.714Z,78.42
2024-01-10T18:33:04.865Z,79.02
2024-01-10T18:36:10.320Z,76.88
2024-01-10T18:39:15.313Z,77.42
2024-01-10T18:42:20.817Z,79.55
2024-01-10T18:45:26.465Z,79.68
2024-01-10T18:48:31.722Z,78.85
2024-01-10T18:51:36.390Z,79.19
2024-01-10T18:54:40.677Z,79.38
2024-01-10T18:57:45.182Z,79.12
2024-01-10T19:00:50.834Z,79.33
2024-01-10T19:03:54.994Z,78.40
2024-01-10T19:06:59.440Z,77.01
2024-01-10T19:10:03.816Z,79.32
2024-01-10T19:13:08.530Z,79.10
2024-01-10T19:16:14.062Z,78.83
2024-01-10T19:19:20.186Z,79.07
2024-01-10T19:22:24.727Z,79.13
2024-01-10T19:25:28.907Z,79.47
2024-01-10T19:28:33.635Z,77.96
2024-01-10T19:31:40.298Z,80.00
2024-01-10T19:34:48.676Z,80.37
2024-01-10T19:37:57.484Z,80.24
2024-01-10T19:41:07.852Z,78.94
2024-01-10T19:44:14.441Z,79.14
2024-01-10T19:47:26.589Z,79.16
2024-01-10T19:50:32.965Z,80.73
2024-01-10T19:53:37.741Z,80.80
2024-01-10T19:56:44.776Z,79.84
2024-01-10T19:59:57.002Z,80.83
2024-01-10T20:03:02.499Z,80.37
2024-01-10T20:06:09.326Z,80.54
2024-01-10T20:09:16.465Z,77.99
2024-01-10T20:12:21.799Z,78.71
2024-01-10T20:15:25.978Z,79.78
2024-01-10T20:18:34.783Z,79.63
2024-01-10T20:21:39.634Z,82.65
2024-01-10T20:24:43.683Z,81.64
2024-01-10T20:27:48.006Z,78.88
2024-01-10T20:30:56.579Z,81.86
2024-01-10T20:34:02.485Z,80.62
2024-01-10T20:37:09.802Z,82.22
2024-01-10T20:40:14.637Z,79.86
2024-01-10T20:43:18.745Z,78.69
2024-01-10T20:46:25.945Z,82.10
2024-01-10T20:49:31.865Z,81.92
2024-01-10T20:52:35.957Z,81.64
2024-01-10T20:55:40.279Z,81.92
2024-01-10T20:58:44.456Z,81.40
2024-01-10T21:01:49.008Z,83.12
2024-01-10T21:04:54.948Z,81.91
2024-01-10T21:08:04.544Z,83.06
2024-01-10T21:11:13.179Z,82.89
2024-01-10T21:14:21.233Z,82.06
2024-01-10T21:17:30.689Z,82.35
2024-01-10T21:20:37.048Z,81.90
2024-01-10T21:23:43.851Z,81.45
2024-01-10T21:26:50.448Z,82.66
2024-01-10T21:30:03.108Z,81.47
2024-01-10T21:33:07.249Z,83.88
2024-01-10T21:36:13.005Z,82.17
2024-01-10T21:39:17.398Z,81.87
2024-01-10T21:42:22.558Z,84.29
2024-01-10T21:45:28.726Z,83.22
2024-01-10T21:48:32.689Z,83.53
2024-01-10T21:51:40.489Z,82.48
2024-01-10T21:54:44.354Z,83.68
2024-01-10T21:57:48.256Z,83.46
2024-01-10T22:00:52.385Z,81.69
2024-01-10T22:03:57.943Z,82.14
2024-01-10T22:07:05.831Z,82.52
2024-01-10T22:10:10.244Z,84.58
2024-01-10T22:13:17.138Z,83.97
2024-01-10T22:16:21.171Z,83.19
2024-01-10T22:19:27.304Z,83.27
2024-01-10T22:22:32.932Z,82.52
2024-01-10T22:25:37.411Z,84.07
2024-01-10T22:28:44.117Z,82.81
2024-01-10T22:31:48.228Z,83.59
2024-01-10T22:34:59.954Z,84.82
2024-01-10T22:38:06.035Z,84.49
2024-01-10T22:41:10.079Z,84.27
2024-01-10T22:44:17.769Z,83.85
2024-01-10T22:47:25.167Z,86.47
2024-01-10T22:50:29.795Z,85.21
2024-01-10T22:53:40.144Z,86.26
2024-01-10T22:56:53.243Z,85.15
2024-01-10T22:59:57.316Z,86.54
2024-01-10T23:03:01.928Z,86.39
2024-01-10T23:06:09.507Z,85.58
2024-01-10T23:09:16.794Z,87.45
2024-01-10T23:12:20.716Z,85.72
2024-01-10T23:15:25.886Z,85.56
2024-01-10T23:18:34.870Z,86.54
2024-01-10T23:21:39.430Z,87.12
2024-01-10T23:24:46.653Z,85.34
2024-01-10T23:27:50.662Z,86.01
2024-01-10T23:30:58.410Z,85.13
2024-01-10T23:34:05.657Z,85.14
2024-01-10T23:37:14.024Z,85.26
2024-01-10T23:40:21.197Z,84.45
2024-01-10T23:43:29.958Z,86.23
2024-01-10T23:46:36.674Z,87.53
2024-01-10T23:49:40.644Z,85.86
2024-01-10T23:52:44.676Z,87.40
2024-01-10T23:55:52.178Z,87.03
2024-01-10T23:59:05.112Z,87.50
